Terminal Aerodrome Forecast
Issued by NWS

Home | Current Version | Previous Version | Text Only | Print | Product List | Glossary On
Versions: 1 2 3 4 5 6 7 8 9 10 11 12 13 14 15 16 17
000
FTUS44 KTSA 220300 AAA
TAFRVS
TAF AMD
KRVS 220327Z 2203/2224 16009KT 5SM -DZ BR BKN009 OVC015
     FM220600 16013KT P6SM OVC015
     FM221200 17012KT P6SM OVC015
     FM221600 23008KT P6SM SCT020 OVC250
     FM221900 28012G20KT P6SM SCT250=

USA.gov is the U.S. government's official web portal to all federal, state and local government web resources and services.